Aérodrome :
LOGIN :

S'inscrire | Disclaimer

   EN    FR    IT 

 










Légende :    VFR   VFR Marginal   IFR   IFR Intensif   IFR Très Intensif
Visi : 
Plafond : 
>= 8 km
>= 3000ft
5 à 8 km
1000 à 3000 ft
1500m à 5 km
500 à 1000 ft
800 à 1500m
200 à 500 ft
< 800m
< 200 ft
Symboles :   Orages  Brouillard  Fortes neiges  Fortes précipitations  Vent > 20 kt
SIGMETs :   Divers  Orages  Givrage  Turbulence  Onde Orograph.  Cendres Volcan.






- Altitude de l'aérodrome : 3 ft
- Code IATA : LWR


EHLW - Leuuwarden Air Base

DERNIER METAR :
  • 102055Z AUTO 19021G31KT 140V220 9999 OVC019 06/03 Q1007 WHT

METARs EXPIRÉS :
  • 102025Z AUTO 19021G32KT 140V220 9999 OVC019 06/02 Q1008 WHT
  • 101955Z AUTO 19021KT 150V220 9999 FEW019 OVC023 06/02 Q1008 WHT
  • 101937Z AUTO 19020KT 150V220 9999 OVC024 06/02 Q1009 WHT
  • 101925Z AUTO 19020KT 150V220 9999 OVC026 06/02 Q1009 BLU
  • 101855Z AUTO 18021KT 150V220 9999 FEW028 OVC043 06/02 Q1009 BLU
  • 101825Z AUTO 18022KT 140V210 9999 SCT060 BKN067 BKN074 05/02 Q1010 BLU
  • 101812Z AUTO 18020KT 150V210 9999 OVC060 05/02 Q1010 BLU

TAF TAF EHLW
Valide du 10 à 18h jusqu'au 11 à 06h UTC


101740Z 1018/1106 18020G35KT 9999 FEW040 SCT060 BKN080
PROB40
TEMPO 1018/1103 20022G40KT
BECMG 1023/1102 SCT018 BKN020
TEMPO 1023/1106 4000 RADZ SCT010 BKN015
BECMG 1104/1106 25012KT



MET'MAP, la Météo Aéronautique d'un coup d'oeil ! - Copyright ORBIFLY Décembre 2007 - Disclaimer

ORBIFLY MET'MAP TEAM :

Programmation & Développement : Alexandra Zaïnal
Sur une idée originale de : Baudouin d'Aumeries
Assistance à la programmation : Marc-Olivier Méhu
Soutien technique & logistique : Manuel Goepfert

Contact : metmap@orbifly.com




SOURCES & CREDITS :

   NOAA